sensor_id;sensor_type;location;lat;lon;timestamp;P1;durP1;ratioP1;P2;durP2;ratioP2
40022;SDS011;25713;-35.352;149.036;2023-10-19T00:01:13;1.67;;;0.98;;
40022;SDS011;25713;-35.352;149.036;2023-10-19T00:03:43;3.08;;;0.80;;
40022;SDS011;25713;-35.352;149.036;2023-10-19T00:06:15;1.30;;;1.10;;
40022;SDS011;25713;-35.352;149.036;2023-10-19T00:08:44;1.38;;;0.80;;
40022;SDS011;25713;-35.352;149.036;2023-10-19T00:11:13;1.77;;;0.70;;
40022;SDS011;25713;-35.352;149.036;2023-10-19T00:13:43;2.80;;;0.98;;
40022;SDS011;25713;-35.352;149.036;2023-10-19T00:16:12;2.15;;;1.45;;
40022;SDS011;25713;-35.352;149.036;2023-10-19T00:18:42;1.25;;;0.90;;
40022;SDS011;25713;-35.352;149.036;2023-10-19T00:21:13;2.45;;;0.90;;
40022;SDS011;25713;-35.352;149.036;2023-10-19T00:23:43;1.25;;;0.80;;
40022;SDS011;25713;-35.352;149.036;2023-10-19T00:26:13;2.15;;;0.80;;
40022;SDS011;25713;-35.352;149.036;2023-10-19T00:28:47;2.35;;;0.80;;
40022;SDS011;25713;-35.352;149.036;2023-10-19T00:31:17;1.58;;;1.05;;
40022;SDS011;25713;-35.352;149.036;2023-10-19T00:33:46;3.40;;;0.90;;
40022;SDS011;25713;-35.352;149.036;2023-10-19T00:36:17;1.42;;;0.90;;
40022;SDS011;25713;-35.352;149.036;2023-10-19T00:38:47;3.10;;;0.93;;
40022;SDS011;25713;-35.352;149.036;2023-10-19T00:41:16;1.60;;;0.90;;
40022;SDS011;25713;-35.352;149.036;2023-10-19T00:43:47;2.20;;;0.90;;
40022;SDS011;25713;-35.352;149.036;2023-10-19T00:46:16;1.95;;;0.85;;
40022;SDS011;25713;-35.352;149.036;2023-10-19T00:48:48;1.80;;;1.00;;
40022;SDS011;25713;-35.352;149.036;2023-10-19T00:51:21;1.50;;;0.90;;
40022;SDS011;25713;-35.352;149.036;2023-10-19T00:53:53;2.47;;;1.27;;
40022;SDS011;25713;-35.352;149.036;2023-10-19T00:56:24;1.60;;;0.90;;
40022;SDS011;25713;-35.352;149.036;2023-10-19T00:58:55;1.20;;;0.85;;
40022;SDS011;25713;-35.352;149.036;2023-10-19T01:01:26;1.05;;;0.85;;
40022;SDS011;25713;-35.352;149.036;2023-10-19T01:03:56;1.05;;;0.90;;
40022;SDS011;25713;-35.352;149.036;2023-10-19T01:06:27;1.10;;;1.00;;
40022;SDS011;25713;-35.352;149.036;2023-10-19T01:08:57;2.00;;;1.20;;
40022;SDS011;25713;-35.352;149.036;2023-10-19T01:11:26;1.10;;;1.00;;
40022;SDS011;25713;-35.352;149.036;2023-10-19T01:13:56;2.13;;;1.20;;
40022;SDS011;25713;-35.352;149.036;2023-10-19T01:16:25;1.30;;;1.13;;
40022;SDS011;25713;-35.352;149.036;2023-10-19T01:18:55;3.45;;;1.52;;
40022;SDS011;25713;-35.352;149.036;2023-10-19T01:21:24;1.52;;;1.30;;
40022;SDS011;25713;-35.352;149.036;2023-10-19T01:23:57;1.67;;;1.30;;
40022;SDS011;25713;-35.352;149.036;2023-10-19T01:26:27;3.47;;;1.50;;
40022;SDS011;25713;-35.352;149.036;2023-10-19T01:28:56;1.65;;;1.42;;
40022;SDS011;25713;-35.352;149.036;2023-10-19T01:31:26;2.33;;;1.50;;
40022;SDS011;25713;-35.352;149.036;2023-10-19T01:33:55;4.13;;;1.40;;
40022;SDS011;25713;-35.352;149.036;2023-10-19T01:36:25;1.90;;;1.50;;
40022;SDS011;25713;-35.352;149.036;2023-10-19T01:38:58;1.30;;;1.20;;
40022;SDS011;25713;-35.352;149.036;2023-10-19T01:41:28;1.60;;;1.50;;
40022;SDS011;25713;-35.352;149.036;2023-10-19T01:43:59;1.75;;;1.27;;
40022;SDS011;25713;-35.352;149.036;2023-10-19T01:46:29;2.80;;;1.60;;
40022;SDS011;25713;-35.352;149.036;2023-10-19T01:48:59;1.63;;;1.50;;
40022;SDS011;25713;-35.352;149.036;2023-10-19T01:51:30;2.17;;;1.27;;
40022;SDS011;25713;-35.352;149.036;2023-10-19T01:54:03;1.80;;;1.40;;
40022;SDS011;25713;-35.352;149.036;2023-10-19T01:56:33;3.13;;;1.27;;
40022;SDS011;25713;-35.352;149.036;2023-10-19T01:59:03;2.03;;;1.30;;
40022;SDS011;25713;-35.352;149.036;2023-10-19T02:01:33;1.83;;;1.50;;
40022;SDS011;25713;-35.352;149.036;2023-10-19T02:04:03;2.05;;;1.40;;
40022;SDS011;25713;-35.352;149.036;2023-10-19T02:06:34;2.10;;;1.60;;
40022;SDS011;25713;-35.352;149.036;2023-10-19T02:09:06;2.00;;;1.60;;
40022;SDS011;25713;-35.352;149.036;2023-10-19T02:11:36;3.75;;;1.30;;
40022;SDS011;25713;-35.352;149.036;2023-10-19T02:14:05;2.88;;;1.40;;
40022;SDS011;25713;-35.352;149.036;2023-10-19T02:16:35;3.75;;;1.70;;
40022;SDS011;25713;-35.352;149.036;2023-10-19T02:19:05;2.72;;;1.60;;
40022;SDS011;25713;-35.352;149.036;2023-10-19T02:21:35;2.25;;;1.60;;
40022;SDS011;25713;-35.352;149.036;2023-10-19T02:24:07;3.75;;;1.40;;
40022;SDS011;25713;-35.352;149.036;2023-10-19T02:26:37;2.67;;;1.60;;
40022;SDS011;25713;-35.352;149.036;2023-10-19T02:29:07;1.75;;;1.50;;
40022;SDS011;25713;-35.352;149.036;2023-10-19T02:31:37;1.52;;;1.40;;
40022;SDS011;25713;-35.352;149.036;2023-10-19T02:34:08;2.10;;;1.45;;
40022;SDS011;25713;-35.352;149.036;2023-10-19T02:36:38;2.85;;;1.60;;
40022;SDS011;25713;-35.352;149.036;2023-10-19T02:39:11;3.08;;;1.52;;
40022;SDS011;25713;-35.352;149.036;2023-10-19T02:41:42;1.85;;;1.60;;
40022;SDS011;25713;-35.352;149.036;2023-10-19T02:44:12;3.03;;;1.65;;
40022;SDS011;25713;-35.352;149.036;2023-10-19T02:46:43;2.78;;;1.60;;
40022;SDS011;25713;-35.352;149.036;2023-10-19T02:49:13;2.03;;;1.52;;
40022;SDS011;25713;-35.352;149.036;2023-10-19T02:51:43;4.32;;;1.40;;
40022;SDS011;25713;-35.352;149.036;2023-10-19T02:54:15;1.75;;;1.45;;
40022;SDS011;25713;-35.352;149.036;2023-10-19T02:56:45;1.70;;;1.60;;
40022;SDS011;25713;-35.352;149.036;2023-10-19T02:59:16;1.73;;;1.52;;
40022;SDS011;25713;-35.352;149.036;2023-10-19T03:01:46;2.38;;;1.50;;
40022;SDS011;25713;-35.352;149.036;2023-10-19T03:04:16;1.67;;;1.25;;
40022;SDS011;25713;-35.352;149.036;2023-10-19T03:06:46;2.05;;;1.50;;
40022;SDS011;25713;-35.352;149.036;2023-10-19T03:09:18;2.45;;;1.58;;
40022;SDS011;25713;-35.352;149.036;2023-10-19T03:11:48;1.83;;;1.60;;
40022;SDS011;25713;-35.352;149.036;2023-10-19T03:14:17;1.70;;;1.60;;
40022;SDS011;25713;-35.352;149.036;2023-10-19T03:16:47;2.00;;;1.48;;
40022;SDS011;25713;-35.352;149.036;2023-10-19T03:19:17;2.08;;;1.77;;
40022;SDS011;25713;-35.352;149.036;2023-10-19T03:21:46;2.85;;;1.48;;
40022;SDS011;25713;-35.352;149.036;2023-10-19T03:24:18;2.17;;;1.48;;
40022;SDS011;25713;-35.352;149.036;2023-10-19T03:26:48;1.70;;;1.50;;
40022;SDS011;25713;-35.352;149.036;2023-10-19T03:29:18;2.40;;;1.60;;
40022;SDS011;25713;-35.352;149.036;2023-10-19T03:31:49;1.60;;;1.40;;
40022;SDS011;25713;-35.352;149.036;2023-10-19T03:34:20;3.10;;;1.40;;
40022;SDS011;25713;-35.352;149.036;2023-10-19T03:36:49;2.08;;;1.60;;
40022;SDS011;25713;-35.352;149.036;2023-10-19T03:39:21;2.67;;;1.40;;
40022;SDS011;25713;-35.352;149.036;2023-10-19T03:41:51;1.30;;;1.15;;
40022;SDS011;25713;-35.352;149.036;2023-10-19T03:44:20;1.15;;;1.05;;
40022;SDS011;25713;-35.352;149.036;2023-10-19T03:46:50;2.45;;;1.60;;
40022;SDS011;25713;-35.352;149.036;2023-10-19T03:49:19;1.38;;;1.27;;
40022;SDS011;25713;-35.352;149.036;2023-10-19T03:51:50;2.22;;;1.38;;
40022;SDS011;25713;-35.352;149.036;2023-10-19T03:54:21;1.30;;;1.20;;
40022;SDS011;25713;-35.352;149.036;2023-10-19T03:56:51;1.73;;;1.38;;
40022;SDS011;25713;-35.352;149.036;2023-10-19T03:59:21;1.98;;;1.50;;
40022;SDS011;25713;-35.352;149.036;2023-10-19T04:01:51;1.40;;;1.30;;
40022;SDS011;25713;-35.352;149.036;2023-10-19T04:04:20;1.27;;;1.10;;
40022;SDS011;25713;-35.352;149.036;2023-10-19T04:06:50;1.95;;;1.30;;
40022;SDS011;25713;-35.352;149.036;2023-10-19T04:09:21;2.60;;;1.17;;
40022;SDS011;25713;-35.352;149.036;2023-10-19T04:11:51;2.58;;;1.50;;
40022;SDS011;25713;-35.352;149.036;2023-10-19T04:14:21;1.80;;;1.33;;
40022;SDS011;25713;-35.352;149.036;2023-10-19T04:16:50;1.40;;;1.30;;
40022;SDS011;25713;-35.352;149.036;2023-10-19T04:19:20;2.25;;;1.10;;
40022;SDS011;25713;-35.352;149.036;2023-10-19T04:21:49;3.67;;;1.55;;
40022;SDS011;25713;-35.352;149.036;2023-10-19T04:24:19;1.30;;;1.20;;
40022;SDS011;25713;-35.352;149.036;2023-10-19T04:26:51;1.23;;;1.13;;
40022;SDS011;25713;-35.352;149.036;2023-10-19T04:29:20;1.42;;;1.13;;
40022;SDS011;25713;-35.352;149.036;2023-10-19T04:31:49;3.38;;;1.23;;
40022;SDS011;25713;-35.352;149.036;2023-10-19T04:34:19;1.73;;;1.20;;
40022;SDS011;25713;-35.352;149.036;2023-10-19T04:36:48;1.60;;;1.40;;
40022;SDS011;25713;-35.352;149.036;2023-10-19T04:39:18;1.77;;;1.25;;
40022;SDS011;25713;-35.352;149.036;2023-10-19T04:41:49;1.88;;;1.35;;
40022;SDS011;25713;-35.352;149.036;2023-10-19T04:44:19;1.58;;;1.30;;
40022;SDS011;25713;-35.352;149.036;2023-10-19T04:46:48;3.33;;;1.23;;
40022;SDS011;25713;-35.352;149.036;2023-10-19T04:49:18;1.60;;;1.15;;
40022;SDS011;25713;-35.352;149.036;2023-10-19T04:51:47;2.08;;;1.30;;
40022;SDS011;25713;-35.352;149.036;2023-10-19T04:54:17;2.22;;;1.60;;
40022;SDS011;25713;-35.352;149.036;2023-10-19T04:56:47;1.50;;;1.10;;
40022;SDS011;25713;-35.352;149.036;2023-10-19T04:59:18;1.20;;;1.10;;
40022;SDS011;25713;-35.352;149.036;2023-10-19T05:01:48;5.72;;;1.27;;
40022;SDS011;25713;-35.352;149.036;2023-10-19T05:04:17;1.88;;;1.40;;
40022;SDS011;25713;-35.352;149.036;2023-10-19T05:06:47;1.75;;;1.25;;
40022;SDS011;25713;-35.352;149.036;2023-10-19T05:09:17;1.25;;;1.00;;
40022;SDS011;25713;-35.352;149.036;2023-10-19T05:11:46;2.25;;;1.30;;
40022;SDS011;25713;-35.352;149.036;2023-10-19T05:14:18;1.23;;;1.13;;
40022;SDS011;25713;-35.352;149.036;2023-10-19T05:16:47;2.13;;;1.30;;
40022;SDS011;25713;-35.352;149.036;2023-10-19T05:19:17;1.98;;;1.42;;
40022;SDS011;25713;-35.352;149.036;2023-10-19T05:21:46;1.50;;;1.40;;
40022;SDS011;25713;-35.352;149.036;2023-10-19T05:24:15;2.03;;;1.20;;
40022;SDS011;25713;-35.352;149.036;2023-10-19T05:26:45;4.00;;;1.52;;
40022;SDS011;25713;-35.352;149.036;2023-10-19T05:29:14;1.42;;;1.30;;
40022;SDS011;25713;-35.352;149.036;2023-10-19T05:31:46;1.40;;;1.15;;
40022;SDS011;25713;-35.352;149.036;2023-10-19T05:34:15;1.70;;;1.38;;
40022;SDS011;25713;-35.352;149.036;2023-10-19T05:36:45;1.65;;;1.40;;
40022;SDS011;25713;-35.352;149.036;2023-10-19T05:39:14;3.10;;;1.20;;
40022;SDS011;25713;-35.352;149.036;2023-10-19T05:41:44;2.17;;;1.02;;
40022;SDS011;25713;-35.352;149.036;2023-10-19T05:44:13;1.85;;;1.20;;
40022;SDS011;25713;-35.352;149.036;2023-10-19T05:46:45;2.40;;;1.02;;
40022;SDS011;25713;-35.352;149.036;2023-10-19T05:49:14;2.05;;;1.10;;
40022;SDS011;25713;-35.352;149.036;2023-10-19T05:51:44;1.25;;;1.02;;
40022;SDS011;25713;-35.352;149.036;2023-10-19T05:54:14;1.60;;;1.00;;
40022;SDS011;25713;-35.352;149.036;2023-10-19T05:56:43;1.30;;;1.10;;
40022;SDS011;25713;-35.352;149.036;2023-10-19T05:59:13;3.05;;;0.90;;
40022;SDS011;25713;-35.352;149.036;2023-10-19T06:01:44;1.67;;;1.10;;
40022;SDS011;25713;-35.352;149.036;2023-10-19T06:04:14;2.10;;;1.00;;
40022;SDS011;25713;-35.352;149.036;2023-10-19T06:06:43;3.08;;;1.05;;
40022;SDS011;25713;-35.352;149.036;2023-10-19T06:09:13;1.45;;;1.00;;
40022;SDS011;25713;-35.352;149.036;2023-10-19T06:11:42;1.00;;;0.90;;
40022;SDS011;25713;-35.352;149.036;2023-10-19T06:14:12;1.10;;;0.98;;
40022;SDS011;25713;-35.352;149.036;2023-10-19T06:16:41;1.23;;;1.00;;
40022;SDS011;25713;-35.352;149.036;2023-10-19T06:19:12;1.90;;;1.00;;
40022;SDS011;25713;-35.352;149.036;2023-10-19T06:21:43;1.25;;;0.80;;
40022;SDS011;25713;-35.352;149.036;2023-10-19T06:24:12;3.08;;;0.90;;
40022;SDS011;25713;-35.352;149.036;2023-10-19T06:26:42;1.10;;;1.00;;
40022;SDS011;25713;-35.352;149.036;2023-10-19T06:29:17;1.48;;;0.80;;
40022;SDS011;25713;-35.352;149.036;2023-10-19T06:31:48;1.25;;;1.02;;
40022;SDS011;25713;-35.352;149.036;2023-10-19T06:34:21;1.35;;;0.88;;
40022;SDS011;25713;-35.352;149.036;2023-10-19T06:36:51;3.05;;;1.13;;
40022;SDS011;25713;-35.352;149.036;2023-10-19T06:39:27;1.55;;;0.90;;
40022;SDS011;25713;-35.352;149.036;2023-10-19T06:41:57;3.72;;;1.00;;
40022;SDS011;25713;-35.352;149.036;2023-10-19T06:44:26;0.80;;;0.80;;
40022;SDS011;25713;-35.352;149.036;2023-10-19T06:46:57;1.20;;;1.10;;
40022;SDS011;25713;-35.352;149.036;2023-10-19T06:49:39;0.82;;;0.82;;
40022;SDS011;25713;-35.352;149.036;2023-10-19T06:52:09;5.22;;;1.15;;
40022;SDS011;25713;-35.352;149.036;2023-10-19T06:54:38;1.25;;;1.15;;
40022;SDS011;25713;-35.352;149.036;2023-10-19T06:57:08;1.23;;;1.10;;
40022;SDS011;25713;-35.352;149.036;2023-10-19T06:59:37;1.10;;;0.98;;
40022;SDS011;25713;-35.352;149.036;2023-10-19T07:02:10;2.25;;;0.90;;
40022;SDS011;25713;-35.352;149.036;2023-10-19T07:04:40;1.50;;;0.85;;
40022;SDS011;25713;-35.352;149.036;2023-10-19T07:07:10;2.60;;;1.00;;
40022;SDS011;25713;-35.352;149.036;2023-10-19T07:09:39;1.30;;;1.17;;
40022;SDS011;25713;-35.352;149.036;2023-10-19T07:12:09;2.50;;;1.20;;
40022;SDS011;25713;-35.352;149.036;2023-10-19T07:14:38;2.95;;;1.10;;
40022;SDS011;25713;-35.352;149.036;2023-10-19T07:17:11;3.53;;;1.20;;
40022;SDS011;25713;-35.352;149.036;2023-10-19T07:19:42;0.95;;;0.90;;
40022;SDS011;25713;-35.352;149.036;2023-10-19T07:22:12;1.08;;;0.90;;
40022;SDS011;25713;-35.352;149.036;2023-10-19T07:24:41;1.33;;;1.10;;
40022;SDS011;25713;-35.352;149.036;2023-10-19T07:27:11;2.85;;;1.20;;
40022;SDS011;25713;-35.352;149.036;2023-10-19T07:29:40;1.23;;;1.13;;
40022;SDS011;25713;-35.352;149.036;2023-10-19T07:32:13;4.03;;;1.00;;
40022;SDS011;25713;-35.352;149.036;2023-10-19T07:34:43;4.50;;;1.50;;
40022;SDS011;25713;-35.352;149.036;2023-10-19T07:37:12;4.85;;;1.58;;
40022;SDS011;25713;-35.352;149.036;2023-10-19T07:39:44;2.75;;;1.10;;
40022;SDS011;25713;-35.352;149.036;2023-10-19T07:42:14;1.33;;;1.23;;
40022;SDS011;25713;-35.352;149.036;2023-10-19T07:44:44;4.05;;;1.40;;
40022;SDS011;25713;-35.352;149.036;2023-10-19T07:47:15;1.75;;;1.23;;
40022;SDS011;25713;-35.352;149.036;2023-10-19T07:49:45;2.35;;;1.15;;
40022;SDS011;25713;-35.352;149.036;2023-10-19T07:52:14;2.97;;;1.27;;
40022;SDS011;25713;-35.352;149.036;2023-10-19T07:54:44;2.58;;;1.30;;
40022;SDS011;25713;-35.352;149.036;2023-10-19T07:57:13;1.88;;;1.52;;
40022;SDS011;25713;-35.352;149.036;2023-10-19T07:59:43;4.25;;;1.42;;
40022;SDS011;25713;-35.352;149.036;2023-10-19T08:02:16;2.58;;;1.27;;
40022;SDS011;25713;-35.352;149.036;2023-10-19T08:04:45;1.13;;;1.00;;
40022;SDS011;25713;-35.352;149.036;2023-10-19T08:07:15;7.35;;;1.50;;
40022;SDS011;25713;-35.352;149.036;2023-10-19T08:09:45;8.02;;;1.25;;
40022;SDS011;25713;-35.352;149.036;2023-10-19T08:12:14;2.45;;;1.25;;
40022;SDS011;25713;-35.352;149.036;2023-10-19T08:14:43;2.90;;;1.33;;
40022;SDS011;25713;-35.352;149.036;2023-10-19T08:17:13;1.45;;;1.20;;
40022;SDS011;25713;-35.352;149.036;2023-10-19T08:19:44;5.28;;;1.50;;
40022;SDS011;25713;-35.352;149.036;2023-10-19T08:22:14;2.55;;;1.30;;
40022;SDS011;25713;-35.352;149.036;2023-10-19T08:24:43;3.47;;;1.15;;
40022;SDS011;25713;-35.352;149.036;2023-10-19T08:27:13;2.55;;;1.20;;
40022;SDS011;25713;-35.352;149.036;2023-10-19T08:29:42;1.27;;;1.17;;
40022;SDS011;25713;-35.352;149.036;2023-10-19T08:32:11;1.70;;;1.08;;
40022;SDS011;25713;-35.352;149.036;2023-10-19T08:34:43;1.70;;;1.13;;
40022;SDS011;25713;-35.352;149.036;2023-10-19T08:37:13;1.20;;;1.07;;
40022;SDS011;25713;-35.352;149.036;2023-10-19T08:39:42;1.27;;;1.10;;
40022;SDS011;25713;-35.352;149.036;2023-10-19T08:42:11;1.70;;;1.10;;
40022;SDS011;25713;-35.352;149.036;2023-10-19T08:44:41;2.47;;;1.00;;
40022;SDS011;25713;-35.352;149.036;2023-10-19T08:47:10;3.63;;;1.20;;
40022;SDS011;25713;-35.352;149.036;2023-10-19T08:49:40;2.55;;;0.90;;
40022;SDS011;25713;-35.352;149.036;2023-10-19T08:52:14;1.13;;;1.00;;
40022;SDS011;25713;-35.352;149.036;2023-10-19T08:54:45;2.40;;;1.02;;
40022;SDS011;25713;-35.352;149.036;2023-10-19T08:57:14;6.00;;;0.90;;
40022;SDS011;25713;-35.352;149.036;2023-10-19T08:59:45;6.05;;;1.30;;
40022;SDS011;25713;-35.352;149.036;2023-10-19T09:02:14;3.97;;;1.00;;
40022;SDS011;25713;-35.352;149.036;2023-10-19T09:04:47;9.57;;;1.30;;
40022;SDS011;25713;-35.352;149.036;2023-10-19T09:07:17;1.58;;;1.00;;
40022;SDS011;25713;-35.352;149.036;2023-10-19T09:09:46;1.98;;;1.00;;
40022;SDS011;25713;-35.352;149.036;2023-10-19T09:12:16;3.45;;;1.13;;
40022;SDS011;25713;-35.352;149.036;2023-10-19T09:14:46;1.90;;;1.02;;
40022;SDS011;25713;-35.352;149.036;2023-10-19T09:17:16;4.10;;;1.10;;
40022;SDS011;25713;-35.352;149.036;2023-10-19T09:20:01;2.08;;;1.05;;
40022;SDS011;25713;-35.352;149.036;2023-10-19T09:22:35;2.55;;;0.90;;
40022;SDS011;25713;-35.352;149.036;2023-10-19T09:25:04;1.45;;;0.88;;
40022;SDS011;25713;-35.352;149.036;2023-10-19T09:27:37;1.10;;;0.90;;
40022;SDS011;25713;-35.352;149.036;2023-10-19T09:30:07;2.00;;;1.23;;
40022;SDS011;25713;-35.352;149.036;2023-10-19T09:32:42;1.75;;;0.90;;
40022;SDS011;25713;-35.352;149.036;2023-10-19T09:35:17;2.15;;;0.90;;
40022;SDS011;25713;-35.352;149.036;2023-10-19T09:37:46;0.98;;;0.88;;
40022;SDS011;25713;-35.352;149.036;2023-10-19T09:40:16;2.13;;;1.13;;
40022;SDS011;25713;-35.352;149.036;2023-10-19T09:42:46;1.08;;;0.80;;
40022;SDS011;25713;-35.352;149.036;2023-10-19T09:47:50;1.13;;;1.02;;
40022;SDS011;25713;-35.352;149.036;2023-10-19T09:50:24;1.17;;;1.00;;
40022;SDS011;25713;-35.352;149.036;2023-10-19T09:52:53;1.13;;;1.02;;
40022;SDS011;25713;-35.352;149.036;2023-10-19T09:55:27;1.57;;;0.90;;
40022;SDS011;25713;-35.352;149.036;2023-10-19T09:58:02;1.15;;;0.90;;
40022;SDS011;25713;-35.352;149.036;2023-10-19T10:00:34;2.20;;;1.10;;
40022;SDS011;25713;-35.352;149.036;2023-10-19T10:03:04;1.33;;;1.10;;
40022;SDS011;25713;-35.352;149.036;2023-10-19T10:08:30;1.52;;;1.00;;
40022;SDS011;25713;-35.352;149.036;2023-10-19T10:11:00;4.00;;;1.25;;
40022;SDS011;25713;-35.352;149.036;2023-10-19T10:13:44;0.98;;;0.90;;
40022;SDS011;25713;-35.352;149.036;2023-10-19T10:16:13;1.25;;;1.10;;
40022;SDS011;25713;-35.352;149.036;2023-10-19T10:18:44;1.92;;;1.23;;
40022;SDS011;25713;-35.352;149.036;2023-10-19T10:21:19;3.00;;;1.23;;
40022;SDS011;25713;-35.352;149.036;2023-10-19T10:23:50;1.98;;;0.90;;
40022;SDS011;25713;-35.352;149.036;2023-10-19T10:26:21;1.10;;;1.00;;
40022;SDS011;25713;-35.352;149.036;2023-10-19T10:31:43;1.20;;;1.05;;
40022;SDS011;25713;-35.352;149.036;2023-10-19T10:37:14;1.88;;;1.10;;
40022;SDS011;25713;-35.352;149.036;2023-10-19T10:39:44;1.80;;;1.00;;
40022;SDS011;25713;-35.352;149.036;2023-10-19T10:42:14;2.97;;;1.15;;
40022;SDS011;25713;-35.352;149.036;2023-10-19T10:44:46;2.67;;;1.10;;
40022;SDS011;25713;-35.352;149.036;2023-10-19T10:47:16;1.20;;;1.10;;
40022;SDS011;25713;-35.352;149.036;2023-10-19T10:49:47;2.38;;;0.90;;
40022;SDS011;25713;-35.352;149.036;2023-10-19T10:52:27;1.30;;;0.85;;
40022;SDS011;25713;-35.352;149.036;2023-10-19T10:55:06;1.70;;;1.00;;
40022;SDS011;25713;-35.352;149.036;2023-10-19T10:57:37;1.88;;;1.10;;
40022;SDS011;25713;-35.352;149.036;2023-10-19T11:00:07;3.08;;;1.15;;
40022;SDS011;25713;-35.352;149.036;2023-10-19T11:02:39;1.63;;;1.10;;
40022;SDS011;25713;-35.352;149.036;2023-10-19T11:05:08;2.55;;;1.15;;
40022;SDS011;25713;-35.352;149.036;2023-10-19T11:08:02;1.02;;;0.90;;
40022;SDS011;25713;-35.352;149.036;2023-10-19T11:10:33;1.00;;;0.90;;
40022;SDS011;25713;-35.352;149.036;2023-10-19T11:13:03;1.45;;;1.10;;
40022;SDS011;25713;-35.352;149.036;2023-10-19T11:15:33;1.10;;;1.00;;
40022;SDS011;25713;-35.352;149.036;2023-10-19T11:18:03;1.75;;;1.10;;
40022;SDS011;25713;-35.352;149.036;2023-10-19T11:20:33;1.52;;;1.10;;
40022;SDS011;25713;-35.352;149.036;2023-10-19T11:23:04;1.60;;;1.15;;
40022;SDS011;25713;-35.352;149.036;2023-10-19T11:25:34;1.55;;;0.90;;
40022;SDS011;25713;-35.352;149.036;2023-10-19T11:28:03;1.40;;;1.10;;
40022;SDS011;25713;-35.352;149.036;2023-10-19T11:30:45;1.85;;;1.00;;
40022;SDS011;25713;-35.352;149.036;2023-10-19T11:33:14;2.38;;;1.10;;
40022;SDS011;25713;-35.352;149.036;2023-10-19T11:35:44;1.33;;;1.08;;
40022;SDS011;25713;-35.352;149.036;2023-10-19T11:38:15;1.10;;;1.00;;
40022;SDS011;25713;-35.352;149.036;2023-10-19T11:40:45;1.50;;;0.90;;
40022;SDS011;25713;-35.352;149.036;2023-10-19T11:43:14;1.65;;;0.90;;
40022;SDS011;25713;-35.352;149.036;2023-10-19T11:45:44;1.23;;;1.00;;
40022;SDS011;25713;-35.352;149.036;2023-10-19T11:48:13;1.92;;;1.00;;
40022;SDS011;25713;-35.352;149.036;2023-10-19T11:50:42;1.15;;;1.00;;
40022;SDS011;25713;-35.352;149.036;2023-10-19T11:53:12;1.40;;;1.10;;
40022;SDS011;25713;-35.352;149.036;2023-10-19T11:55:45;1.00;;;0.90;;
40022;SDS011;25713;-35.352;149.036;2023-10-19T11:58:14;1.02;;;0.90;;
40022;SDS011;25713;-35.352;149.036;2023-10-19T12:00:44;1.40;;;1.00;;
40022;SDS011;25713;-35.352;149.036;2023-10-19T12:03:13;2.03;;;1.40;;
40022;SDS011;25713;-35.352;149.036;2023-10-19T12:05:43;1.88;;;1.05;;
40022;SDS011;25713;-35.352;149.036;2023-10-19T12:08:12;1.58;;;1.00;;
40022;SDS011;25713;-35.352;149.036;2023-10-19T12:10:45;1.20;;;0.93;;
40022;SDS011;25713;-35.352;149.036;2023-10-19T12:13:14;2.53;;;1.00;;
40022;SDS011;25713;-35.352;149.036;2023-10-19T12:15:43;1.58;;;1.00;;
40022;SDS011;25713;-35.352;149.036;2023-10-19T12:18:13;2.45;;;1.00;;
40022;SDS011;25713;-35.352;149.036;2023-10-19T12:20:42;0.90;;;0.90;;
40022;SDS011;25713;-35.352;149.036;2023-10-19T12:23:12;1.40;;;0.80;;
40022;SDS011;25713;-35.352;149.036;2023-10-19T12:25:44;2.47;;;1.25;;
40022;SDS011;25713;-35.352;149.036;2023-10-19T12:28:14;4.45;;;1.00;;
40022;SDS011;25713;-35.352;149.036;2023-10-19T12:30:44;1.08;;;0.98;;
40022;SDS011;25713;-35.352;149.036;2023-10-19T12:33:13;1.42;;;0.75;;
40022;SDS011;25713;-35.352;149.036;2023-10-19T12:35:43;1.58;;;0.85;;
40022;SDS011;25713;-35.352;149.036;2023-10-19T12:38:12;1.02;;;0.85;;
40022;SDS011;25713;-35.352;149.036;2023-10-19T12:40:44;1.15;;;0.90;;
40022;SDS011;25713;-35.352;149.036;2023-10-19T12:43:14;0.90;;;0.80;;
40022;SDS011;25713;-35.352;149.036;2023-10-19T12:45:44;2.75;;;1.25;;
40022;SDS011;25713;-35.352;149.036;2023-10-19T12:48:14;2.25;;;0.90;;
40022;SDS011;25713;-35.352;149.036;2023-10-19T12:50:44;1.70;;;1.00;;
40022;SDS011;25713;-35.352;149.036;2023-10-19T12:53:16;2.67;;;1.00;;
40022;SDS011;25713;-35.352;149.036;2023-10-19T12:55:45;1.73;;;1.10;;
40022;SDS011;25713;-35.352;149.036;2023-10-19T12:58:14;1.92;;;0.90;;
40022;SDS011;25713;-35.352;149.036;2023-10-19T13:00:44;0.90;;;0.75;;
40022;SDS011;25713;-35.352;149.036;2023-10-19T13:03:14;3.47;;;1.10;;
40022;SDS011;25713;-35.352;149.036;2023-10-19T13:05:43;1.83;;;0.95;;
40022;SDS011;25713;-35.352;149.036;2023-10-19T13:08:13;1.58;;;1.00;;
40022;SDS011;25713;-35.352;149.036;2023-10-19T13:10:45;2.83;;;1.00;;
40022;SDS011;25713;-35.352;149.036;2023-10-19T13:13:15;5.93;;;0.90;;
40022;SDS011;25713;-35.352;149.036;2023-10-19T13:15:45;1.00;;;0.90;;
40022;SDS011;25713;-35.352;149.036;2023-10-19T13:18:15;0.90;;;0.70;;
40022;SDS011;25713;-35.352;149.036;2023-10-19T13:20:45;1.40;;;1.02;;
40022;SDS011;25713;-35.352;149.036;2023-10-19T13:23:17;1.00;;;0.73;;
40022;SDS011;25713;-35.352;149.036;2023-10-19T13:25:46;1.50;;;0.90;;
40022;SDS011;25713;-35.352;149.036;2023-10-19T13:28:17;1.45;;;0.90;;
40022;SDS011;25713;-35.352;149.036;2023-10-19T13:30:47;2.83;;;0.95;;
40022;SDS011;25713;-35.352;149.036;2023-10-19T13:33:17;1.27;;;0.80;;
40022;SDS011;25713;-35.352;149.036;2023-10-19T13:35:47;1.92;;;0.80;;
40022;SDS011;25713;-35.352;149.036;2023-10-19T13:38:20;0.65;;;0.65;;
40022;SDS011;25713;-35.352;149.036;2023-10-19T13:40:50;1.00;;;0.80;;
40022;SDS011;25713;-35.352;149.036;2023-10-19T13:43:19;2.53;;;1.00;;
40022;SDS011;25713;-35.352;149.036;2023-10-19T13:45:48;1.38;;;0.80;;
40022;SDS011;25713;-35.352;149.036;2023-10-19T13:48:19;1.42;;;0.70;;
40022;SDS011;25713;-35.352;149.036;2023-10-19T13:50:48;3.35;;;0.90;;
40022;SDS011;25713;-35.352;149.036;2023-10-19T13:53:21;0.90;;;0.80;;
40022;SDS011;25713;-35.352;149.036;2023-10-19T13:55:50;1.55;;;0.90;;
40022;SDS011;25713;-35.352;149.036;2023-10-19T13:58:20;1.38;;;0.80;;
40022;SDS011;25713;-35.352;149.036;2023-10-19T14:00:49;3.20;;;0.90;;
40022;SDS011;25713;-35.352;149.036;2023-10-19T14:03:19;1.42;;;0.88;;
40022;SDS011;25713;-35.352;149.036;2023-10-19T14:05:48;1.63;;;0.88;;
40022;SDS011;25713;-35.352;149.036;2023-10-19T14:08:20;1.10;;;0.73;;
40022;SDS011;25713;-35.352;149.036;2023-10-19T14:10:50;1.50;;;0.85;;
40022;SDS011;25713;-35.352;149.036;2023-10-19T14:13:19;1.55;;;0.85;;
40022;SDS011;25713;-35.352;149.036;2023-10-19T14:15:49;0.85;;;0.70;;
40022;SDS011;25713;-35.352;149.036;2023-10-19T14:18:18;2.33;;;1.20;;
40022;SDS011;25713;-35.352;149.036;2023-10-19T14:20:48;1.20;;;1.00;;
40022;SDS011;25713;-35.352;149.036;2023-10-19T14:23:17;1.45;;;0.90;;
40022;SDS011;25713;-35.352;149.036;2023-10-19T14:25:48;2.60;;;1.00;;
40022;SDS011;25713;-35.352;149.036;2023-10-19T14:28:18;1.42;;;1.10;;
40022;SDS011;25713;-35.352;149.036;2023-10-19T14:30:47;2.28;;;0.90;;
40022;SDS011;25713;-35.352;149.036;2023-10-19T14:33:16;4.45;;;1.23;;
40022;SDS011;25713;-35.352;149.036;2023-10-19T14:35:46;1.80;;;1.20;;
40022;SDS011;25713;-35.352;149.036;2023-10-19T14:38:15;0.95;;;0.85;;